Hauptseite
METAR-TAF:

METAR-TAF

Flughäfen :

Damaskus, Syrien

Flughafen Damaskus

Breite: 33-25N, Länge: 036-31E, Höhe: 608 m

Beobachtung

Neuester Wetterbericht von vor 51 Minuten, um 15:00 UTC
Wind 14 kt aus Südwest
Temperatur 41°C
Luftfeuchtigkeit 10%
Luftdruck 1008 hPa
Sichtweite 10 km oder mehr
keine Wolken unter 1500 m und keine Kumulonimbus oder Gewitterwolken

METAR: OSDI 271500Z 23014KT CAVOK 41/04 Q1008

Zeit: 18:51 (15:51 UTC)

Prognose

Neuester Wetterbericht von vor 5 Stunden und 51 Minuten, um 10:00 UTC
Gültige Prognose vom 27 um 12 UTC bis 28 um 18 UTC
Wind 10 kt aus Süd/Südwest
Sichtweite 10 km oder mehr
keine Wolken unter 1500 m und keine Kumulonimbus oder Gewitterwolken
Zeitweise
vom 27 um 12 UTC bis 28 um 18 UTC
Wind 15 kt aus West/Südwest, Böen bis zu 25 kt
Sichtweite: 8000 m
Leicht bewölkt in der Höhe von 3000 ft

TAF: OSDI 271000Z 2712/2818 21010KT CAVOK TEMPO 2712/2818 24015G25KT 8000 FEW030

Wetterbeobachtungen und Prognosen von mehr als 4000 Flughäfen (METAR und TAF Bericht).

Die verfügbaren Stationen werden durch gelbe und rote Markierungen auf der Karte dargestellt.

Führen Sie die Maus auf sie, um den Namen der Station zu sehen.

Darauf klicken, um die Beobachtung von Wetterbeobachtungen und Prognosen zu sehen.

Um die Karte zu ändern : klicken Sie auf den grünen Tasten mit einem schwarzen Kreuz Zum Vergrößern, auf den grünen Button mit einem Gedankenstrich zu verkleinern, oder auf die grünen Pfeile für benachbarte Karten.


METAR-TAF: